Time;durP1;ratioP1;P1;durP2;ratioP2;P2;SDS_P1;SDS_P2;PMS_P1;PMS_P2;Temp;Humidity;BMP_temperature;BMP_pressure;BME280_temperature;BME280_humidity;BME280_pressure;Samples;Min_cycle;Max_cycle;Signal;HPM_P1;HPM_P2
2023/07/26 06:31:26;;;;;;;7.13;3.00;;;16.50;99.90;;;;;;4992816;23;20050;-74
2023/07/26 06:33:52;;;;;;;4.15;2.00;;;16.80;99.90;;;;;;4976133;28;20047;-72
2023/07/26 06:36:17;;;;;;;8.75;2.45;;;16.90;99.90;;;;;;5002985;28;20019;-71
2023/07/26 06:38:43;;;;;;;6.28;2.63;;;17.00;99.90;;;;;;4982695;28;20038;-72
2023/07/26 06:41:09;;;;;;;7.13;2.30;;;17.00;99.90;;;;;;4990192;28;20090;-71
2023/07/26 06:43:35;;;;;;;4.50;1.90;;;17.00;99.90;;;;;;5005433;28;20035;-73
2023/07/26 06:46:00;;;;;;;6.57;1.95;;;16.90;99.90;;;;;;5002281;28;20037;-72
2023/07/26 06:48:26;;;;;;;8.18;2.58;;;16.80;99.90;;;;;;4969168;28;20204;-72
2023/07/26 06:50:52;;;;;;;10.77;2.55;;;16.90;99.90;;;;;;4983728;28;20022;-73
2023/07/26 06:53:17;;;;;;;8.07;2.38;;;17.10;99.90;;;;;;4986026;28;20045;-72
2023/07/26 06:55:43;;;;;;;6.70;1.80;;;17.00;99.80;;;;;;4986015;28;20031;-71
2023/07/26 06:58:09;;;;;;;6.22;1.88;;;17.10;99.90;;;;;;4985320;28;20043;-71
2023/07/26 07:00:35;;;;;;;7.60;2.03;;;17.10;99.10;;;;;;4985707;28;20256;-71
2023/07/26 07:03:03;;;;;;;9.23;2.50;;;16.90;99.60;;;;;;4987375;28;20056;-72
2023/07/26 07:05:30;;;;;;;6.35;2.20;;;16.70;99.90;;;;;;5004246;28;20321;-71
2023/07/26 07:07:56;;;;;;;6.47;2.20;;;16.60;99.90;;;;;;4998858;28;20133;-71
2023/07/26 07:10:22;;;;;;;5.00;2.13;;;16.60;99.90;;;;;;5005223;28;20035;-72
2023/07/26 07:12:48;;;;;;;5.88;2.55;;;16.50;99.90;;;;;;5005310;28;20030;-72
2023/07/26 07:15:14;;;;;;;3.97;2.30;;;16.50;99.90;;;;;;5004679;28;20030;-72
2023/07/26 07:17:40;;;;;;;4.95;2.38;;;16.40;99.90;;;;;;5004630;28;20104;-70
2023/07/26 07:20:10;;;;;;;4.00;2.40;;;16.30;99.90;;;;;;4987347;28;20038;-70
2023/07/26 07:22:36;;;;;;;5.95;2.83;;;16.30;99.90;;;;;;5005099;28;20058;-72
2023/07/26 07:25:02;;;;;;;7.00;3.20;;;16.10;99.90;;;;;;5004430;28;20052;-72
2023/07/26 07:27:28;;;;;;;10.32;3.65;;;15.80;99.90;;;;;;4971337;28;20035;-71
2023/07/26 07:29:54;;;;;;;4.63;2.45;;;15.70;99.90;;;;;;4965280;29;20053;-71
2023/07/26 07:32:21;;;;;;;5.60;2.83;;;15.60;99.90;;;;;;4965885;28;20031;-71
2023/07/26 07:34:48;;;;;;;4.07;2.55;;;15.50;99.90;;;;;;4985433;28;20205;-71
2023/07/26 07:37:14;;;;;;;4.65;2.67;;;15.50;99.90;;;;;;4984299;28;20046;-70
2023/07/26 07:39:39;;;;;;;4.65;2.58;;;15.40;99.90;;;;;;4985024;28;20070;-71
2023/07/26 07:42:05;;;;;;;5.68;2.67;;;15.50;99.90;;;;;;4967278;28;20041;-71
2023/07/26 07:44:31;;;;;;;5.15;2.65;;;15.40;99.90;;;;;;4984703;28;20039;-72
2023/07/26 07:46:57;;;;;;;7.25;3.20;;;15.50;99.90;;;;;;4983958;28;20038;-70
2023/07/26 07:49:23;;;;;;;4.63;2.83;;;15.50;99.90;;;;;;4984900;28;20224;-72
2023/07/26 07:51:49;;;;;;;4.38;2.95;;;15.60;99.90;;;;;;4984529;28;20108;-71
2023/07/26 07:54:15;;;;;;;7.78;3.28;;;15.70;99.90;;;;;;4984127;28;20074;-70
2023/07/26 07:56:41;;;;;;;4.85;2.58;;;15.80;99.90;;;;;;4984692;28;20031;-72
2023/07/26 07:59:07;;;;;;;6.45;3.00;;;15.90;99.90;;;;;;4984266;28;20343;-71
2023/07/26 08:01:33;;;;;;;12.68;3.30;;;16.00;99.90;;;;;;4984585;28;20109;-71
2023/07/26 08:03:59;;;;;;;6.13;2.75;;;16.00;99.90;;;;;;4984401;28;20023;-72
2023/07/26 08:06:26;;;;;;;5.15;2.40;;;15.90;99.90;;;;;;4984578;28;20026;-72
2023/07/26 08:08:52;;;;;;;6.97;2.60;;;16.00;99.90;;;;;;4984398;28;20027;-72
2023/07/26 08:11:18;;;;;;;4.70;2.55;;;16.00;99.90;;;;;;4983908;28;20099;-71
2023/07/26 08:13:44;;;;;;;4.68;2.17;;;16.00;99.90;;;;;;4984439;28;20293;-71
2023/07/26 08:16:10;;;;;;;4.68;2.55;;;15.90;99.90;;;;;;4983685;28;20054;-72
2023/07/26 08:18:37;;;;;;;6.35;2.55;;;15.90;99.90;;;;;;4984178;28;20078;-71
2023/07/26 08:21:03;;;;;;;12.32;3.35;;;15.80;99.90;;;;;;4983586;28;20043;-72
2023/07/26 08:23:30;;;;;;;4.65;1.67;;;15.70;99.90;;;;;;4984278;28;20042;-70
2023/07/26 08:25:56;;;;;;;3.40;1.27;;;15.80;99.90;;;;;;4979423;28;20331;-72
2023/07/26 08:28:22;;;;;;;5.53;2.63;;;15.70;99.90;;;;;;4964574;29;20098;-70
2023/07/26 08:30:48;;;;;;;12.05;2.40;;;15.60;99.90;;;;;;4964487;29;20054;-71
2023/07/26 08:33:14;;;;;;;6.55;2.25;;;15.70;99.90;;;;;;4971285;28;20053;-71
2023/07/26 08:35:39;;;;;;;5.03;2.20;;;15.70;99.90;;;;;;4983727;28;20312;-72
2023/07/26 08:38:05;;;;;;;7.05;2.30;;;15.70;99.90;;;;;;4983614;28;20030;-72
2023/07/26 08:40:31;;;;;;;3.80;2.20;;;15.80;99.90;;;;;;4983963;28;20038;-71
2023/07/26 08:43:02;;;;;;;3.80;1.90;;;15.80;99.90;;;;;;4983490;28;20037;-73
2023/07/26 08:45:28;;;;;;;5.75;2.13;;;15.80;99.90;;;;;;4983866;28;20292;-73
2023/07/26 08:47:54;;;;;;;6.05;2.10;;;15.90;99.90;;;;;;4983752;28;20308;-73
2023/07/26 08:50:21;;;;;;;4.70;2.15;;;16.20;99.90;;;;;;4983042;28;20080;-74
2023/07/26 08:52:47;;;;;;;3.38;1.42;;;16.20;99.90;;;;;;4983791;28;20038;-72
2023/07/26 08:55:14;;;;;;;2.80;1.38;;;16.30;99.90;;;;;;4983056;28;20026;-72
2023/07/26 08:57:40;;;;;;;2.40;1.30;;;16.40;99.90;;;;;;4983969;28;20039;-73
2023/07/26 09:00:07;;;;;;;1.88;0.88;;;16.70;99.90;;;;;;4982998;28;20093;-72
2023/07/26 09:02:34;;;;;;;2.00;0.98;;;16.60;99.40;;;;;;4983709;28;20022;-71
2023/07/26 09:04:59;;;;;;;3.10;0.70;;;16.70;99.10;;;;;;4982570;28;20395;-71
2023/07/26 09:07:25;;;;;;;1.92;0.60;;;17.00;97.20;;;;;;4983123;28;20041;-71
2023/07/26 09:09:51;;;;;;;3.00;0.50;;;17.00;95.80;;;;;;4983462;28;20042;-72
2023/07/26 09:12:25;;;;;;;1.08;0.45;;;17.00;95.30;;;;;;4982453;28;20033;-73
2023/07/26 09:14:53;;;;;;;1.90;0.50;;;17.10;95.00;;;;;;4983168;28;20057;-72
2023/07/26 09:17:19;;;;;;;5.97;0.80;;;17.20;94.60;;;;;;4983297;28;20153;-71
2023/07/26 09:19:45;;;;;;;9.23;1.08;;;17.40;94.20;;;;;;4983353;28;20336;-73
2023/07/26 09:22:11;;;;;;;2.67;0.55;;;17.70;94.40;;;;;;4983174;28;20019;-74
2023/07/26 09:24:40;;;;;;;1.63;0.40;;;17.70;94.20;;;;;;4966438;28;20027;-72
2023/07/26 09:27:09;;;;;;;1.52;0.30;;;17.80;94.10;;;;;;4969320;28;20039;-72
2023/07/26 09:29:36;;;;;;;1.02;0.40;;;17.90;93.80;;;;;;4963825;29;20047;-72
2023/07/26 09:32:03;;;;;;;2.30;0.30;;;17.90;93.30;;;;;;4946468;29;20257;-72
2023/07/26 09:34:32;;;;;;;1.05;0.20;;;17.90;93.50;;;;;;4981247;28;20042;-71
2023/07/26 09:36:58;;;;;;;1.40;0.30;;;17.70;93.80;;;;;;4982990;28;20041;-73
2023/07/26 09:39:26;;;;;;;1.20;0.50;;;18.00;93.30;;;;;;4982758;28;20027;-73
2023/07/26 09:42:06;;;;;;;1.23;0.40;;;17.90;94.20;;;;;;4983178;28;20062;-72
2023/07/26 09:44:33;;;;;;;1.35;0.40;;;17.90;94.00;;;;;;4982883;28;20096;-72
2023/07/26 09:46:59;;;;;;;2.75;0.98;;;17.70;95.00;;;;;;4982969;28;20031;-72
2023/07/26 09:49:29;;;;;;;2.42;0.65;;;17.60;95.40;;;;;;4983461;28;20044;-72
2023/07/26 09:52:00;;;;;;;3.85;1.40;;;17.60;97.10;;;;;;4983054;28;20026;-72
2023/07/26 09:54:31;;;;;;;1.05;0.45;;;17.20;97.80;;;;;;4965821;28;20042;-73
2023/07/26 09:56:58;;;;;;;2.10;0.65;;;17.10;96.90;;;;;;4983052;28;20045;-74
2023/07/26 09:59:25;;;;;;;1.60;0.50;;;17.10;97.10;;;;;;4982998;28;20078;-73
2023/07/26 10:01:52;;;;;;;1.67;0.70;;;17.20;96.40;;;;;;4982330;28;20232;-76
2023/07/26 10:04:26;;;;;;;2.38;0.60;;;17.20;96.70;;;;;;4986181;28;20554;-72
2023/07/26 10:06:56;;;;;;;3.33;0.70;;;17.70;96.50;;;;;;4966233;28;20030;-73
2023/07/26 10:09:25;;;;;;;4.85;0.98;;;18.00;95.70;;;;;;4966494;29;20074;-72
2023/07/26 10:11:53;;;;;;;5.70;0.70;;;18.80;94.60;;;;;;4967078;29;20238;-72
2023/07/26 10:14:20;;;;;;;2.90;0.80;;;19.10;93.10;;;;;;4967024;28;20309;-74
2023/07/26 10:16:49;;;;;;;4.65;1.00;;;19.40;93.00;;;;;;4985840;28;20031;-72
2023/07/26 10:19:15;;;;;;;;;;;19.40;92.90;;;;;;4985618;28;20033;-73
2023/07/26 10:21:42;;;;;;;2.55;0.65;;;19.00;92.90;;;;;;4968359;28;19918;-72
2023/07/26 10:24:11;;;;;;;2.00;1.10;;;18.90;94.70;;;;;;4985977;28;20113;-73
2023/07/26 10:26:37;;;;;;;;;;;18.90;95.10;;;;;;4976880;28;20209;-73
2023/07/26 10:29:03;;;;;;;2.35;0.80;;;18.20;97.00;;;;;;4966390;29;19906;-73
2023/07/26 10:31:32;;;;;;;3.65;1.00;;;18.00;96.90;;;;;;4966602;29;20372;-74
2023/07/26 10:33:58;;;;;;;3.47;0.80;;;17.90;96.70;;;;;;4973381;28;20027;-73
2023/07/26 10:36:31;;;;;;;2.00;0.65;;;17.80;96.40;;;;;;4985518;28;20363;-72
2023/07/26 10:39:06;;;;;;;2.78;1.15;;;17.90;95.70;;;;;;4969233;28;20077;-72
2023/07/26 10:41:35;;;;;;;4.75;2.40;;;18.10;95.80;;;;;;4966800;29;20066;-74
2023/07/26 10:44:11;;;;;;;3.65;1.90;;;18.40;95.50;;;;;;4966717;29;20039;-72
2023/07/26 10:46:53;;;;;;;1.77;0.75;;;18.90;94.40;;;;;;4966794;29;20317;-74
2023/07/26 10:49:21;;;;;;;2.55;1.00;;;18.90;93.20;;;;;;4966127;29;20039;-73
2023/07/26 10:52:00;;;;;;;3.30;0.90;;;19.00;92.50;;;;;;4976412;28;20283;-72
2023/07/26 10:54:41;;;;;;;3.92;0.80;;;19.20;92.60;;;;;;4971594;28;20248;-72
2023/07/26 10:57:31;;;;;;;1.83;0.70;;;19.30;91.50;;;;;;4985258;28;20118;-73
2023/07/26 10:59:59;;;;;;;2.13;0.90;;;19.30;91.10;;;;;;4969632;28;20047;-72
2023/07/26 11:02:39;;;;;;;2.50;0.90;;;19.20;91.00;;;;;;4964734;29;20216;-73
2023/07/26 11:05:19;;;;;;;4.70;1.63;;;19.50;90.90;;;;;;4965471;29;20229;-73
2023/07/26 11:07:51;;;;;;;2.80;1.23;;;19.80;90.20;;;;;;4975734;28;20069;-71
2023/07/26 11:10:29;;;;;;;2.03;0.95;;;20.20;89.90;;;;;;4984734;28;20043;-71
2023/07/26 11:13:16;;;;;;;2.67;1.30;;;20.70;87.10;;;;;;4985283;28;20035;-72
2023/07/26 11:15:47;;;;;;;2.08;0.88;;;20.90;85.30;;;;;;4985315;28;20050;-72
2023/07/26 11:18:14;;;;;;;2.38;1.13;;;20.40;86.00;;;;;;4984935;28;20034;-72
2023/07/26 11:20:45;;;;;;;3.78;1.58;;;20.90;84.90;;;;;;4985596;28;20027;-72
2023/07/26 11:23:17;;;;;;;4.85;1.35;;;21.20;85.00;;;;;;4984732;28;20174;-72
2023/07/26 11:25:44;;;;;;;17.00;1.95;;;21.40;83.60;;;;;;4970886;28;20089;-72
2023/07/26 11:28:10;;;;;;;2.08;0.70;;;21.60;82.80;;;;;;4984852;28;20027;-73
2023/07/26 11:30:39;;;;;;;5.03;1.80;;;21.40;81.60;;;;;;4984756;28;20097;-71
2023/07/26 11:33:05;;;;;;;1.95;0.90;;;21.60;82.00;;;;;;4984934;28;20035;-71
2023/07/26 11:35:42;;;;;;;6.22;1.38;;;21.80;79.50;;;;;;4985279;28;20035;-70
2023/07/26 11:38:12;;;;;;;6.63;1.30;;;21.80;81.00;;;;;;4984223;28;20093;-71
2023/07/26 11:40:42;;;;;;;8.23;1.83;;;22.20;79.10;;;;;;4984852;28;20039;-71
2023/07/26 11:43:09;;;;;;;3.42;0.80;;;22.40;80.40;;;;;;4984138;28;20027;-72
2023/07/26 11:45:37;;;;;;;7.10;1.67;;;22.20;79.30;;;;;;4984672;28;20221;-71
2023/07/26 11:48:05;;;;;;;6.40;1.45;;;22.60;80.20;;;;;;4967625;28;20078;-70
2023/07/26 11:50:31;;;;;;;;;;;22.70;79.60;;;;;;4985550;28;20089;-73
2023/07/26 11:53:07;;;;;;;3.08;1.02;;;22.70;78.80;;;;;;4984675;28;19914;-74
2023/07/26 11:55:34;;;;;;;2.85;0.98;;;22.30;80.10;;;;;;4967747;28;20057;-72
2023/07/26 11:58:04;;;;;;;3.00;1.05;;;21.40;80.30;;;;;;4984724;28;20058;-72
2023/07/26 12:00:34;;;;;;;2.22;1.02;;;21.50;82.40;;;;;;4967085;28;20305;-72
2023/07/26 12:03:05;;;;;;;2.30;1.23;;;21.70;79.20;;;;;;4984729;28;20034;-71
2023/07/26 12:05:32;;;;;;;14.20;2.22;;;21.80;77.80;;;;;;4983875;28;20038;-72
2023/07/26 12:08:01;;;;;;;4.32;1.50;;;21.60;78.30;;;;;;4984831;28;20062;-72
2023/07/26 12:10:38;;;;;;;2.60;1.25;;;21.60;78.00;;;;;;4983838;28;20292;-71
2023/07/26 12:13:27;;;;;;;3.22;1.60;;;22.20;76.40;;;;;;4967391;28;20041;-73
2023/07/26 12:16:01;;;;;;;3.42;1.50;;;23.20;72.70;;;;;;4984658;28;20030;-76
2023/07/26 12:18:27;;;;;;;3.45;1.15;;;23.60;69.90;;;;;;4983806;28;20031;-73
2023/07/26 12:21:08;;;;;;;6.22;1.63;;;24.40;69.70;;;;;;4984012;28;20038;-72
2023/07/26 12:23:50;;;;;;;3.08;1.40;;;25.50;66.90;;;;;;4984359;28;20031;-73
2023/07/26 12:26:16;;;;;;;2.40;1.30;;;25.30;67.30;;;;;;4983359;28;20027;-72
2023/07/26 12:28:45;;;;;;;2.85;1.45;;;25.50;66.20;;;;;;4984276;28;20035;-71
2023/07/26 12:31:19;;;;;;;4.97;1.27;;;25.90;65.20;;;;;;4982981;28;20371;-70
2023/07/26 12:34:04;;;;;;;7.05;1.67;;;25.90;65.10;;;;;;4983992;28;20085;-73
2023/07/26 12:36:45;;;;;;;10.73;2.42;;;24.60;67.20;;;;;;4983991;28;20029;-72
2023/07/26 12:39:16;;;;;;;4.60;1.50;;;23.60;68.80;;;;;;4965024;28;20085;-74
2023/07/26 12:41:43;;;;;;;4.78;1.52;;;23.60;67.70;;;;;;4964131;29;20039;-76
2023/07/26 12:44:16;;;;;;;5.68;1.80;;;23.10;70.10;;;;;;4947645;29;20082;-71
2023/07/26 12:46:44;;;;;;;3.15;1.70;;;22.60;71.10;;;;;;4964880;29;20027;-74
2023/07/26 12:49:13;;;;;;;4.05;1.60;;;22.30;72.10;;;;;;4945909;29;20031;-73
2023/07/26 12:51:39;;;;;;;4.03;1.70;;;22.00;72.10;;;;;;4964372;29;20038;-71
2023/07/26 12:54:05;;;;;;;7.45;1.95;;;21.50;72.60;;;;;;4964376;29;20205;-73
2023/07/26 12:56:31;;;;;;;7.07;1.92;;;21.10;76.90;;;;;;4963689;29;20026;-72
2023/07/26 12:58:56;;;;;;;5.07;2.20;;;20.50;83.40;;;;;;4964619;29;20237;-74
2023/07/26 13:01:22;;;;;;;6.63;2.50;;;17.60;99.90;;;;;;4963881;29;20042;-73
2023/07/26 13:03:48;;;;;;;6.13;2.33;;;15.90;99.90;;;;;;4963866;29;20086;-74
2023/07/26 13:06:14;;;;;;;7.13;3.28;;;15.30;99.90;;;;;;4963417;29;20110;-72
2023/07/26 13:08:39;;;;;;;8.50;3.67;;;15.20;99.90;;;;;;4964022;29;20033;-74
2023/07/26 13:11:05;;;;;;;6.40;3.13;;;15.60;99.90;;;;;;4947455;29;20027;-72
2023/07/26 13:13:31;;;;;;;6.70;3.10;;;15.80;99.90;;;;;;4946783;29;20035;-75
2023/07/26 13:16:00;;;;;;;3.95;2.30;;;16.80;99.90;;;;;;4947276;29;20034;-71
2023/07/26 13:18:26;;;;;;;4.80;2.33;;;17.40;99.90;;;;;;4963451;29;20432;-73
2023/07/26 13:20:53;;;;;;;10.52;2.70;;;17.80;99.90;;;;;;4947269;29;20035;-72
2023/07/26 13:23:21;;;;;;;5.95;1.80;;;19.70;99.90;;;;;;4962948;29;20027;-74
2023/07/26 13:25:47;;;;;;;5.65;2.00;;;21.20;99.90;;;;;;4948947;28;20043;-73
2023/07/26 13:28:13;;;;;;;6.28;2.00;;;19.70;99.90;;;;;;4982798;28;20090;-72
2023/07/26 13:30:38;;;;;;;3.42;1.80;;;19.60;99.90;;;;;;4983001;28;20053;-73
2023/07/26 13:33:05;;;;;;;3.42;2.03;;;18.90;99.90;;;;;;4983599;28;20034;-71
2023/07/26 13:35:31;;;;;;;5.15;1.75;;;18.30;99.90;;;;;;4982935;28;20039;-72
2023/07/26 13:37:56;;;;;;;3.53;1.77;;;18.20;99.90;;;;;;4986965;28;20309;-72
2023/07/26 13:40:22;;;;;;;3.28;1.67;;;18.00;99.90;;;;;;4987200;28;20039;-72
2023/07/26 13:42:48;;;;;;;5.38;2.03;;;17.90;99.90;;;;;;4985848;28;20062;-72
2023/07/26 13:45:14;;;;;;;5.80;1.88;;;18.70;99.90;;;;;;4986751;28;20371;-75
2023/07/26 13:47:39;;;;;;;3.83;1.55;;;19.80;95.40;;;;;;4987100;28;20075;-71
2023/07/26 13:50:06;;;;;;;4.07;1.92;;;20.70;93.30;;;;;;4987150;28;20027;-72
2023/07/26 13:52:32;;;;;;;4.80;2.08;;;21.40;88.00;;;;;;4986727;28;20034;-74
2023/07/26 13:54:57;;;;;;;2.97;1.55;;;23.10;88.00;;;;;;4987263;28;20385;-73
2023/07/26 13:57:23;;;;;;;3.13;1.52;;;25.10;75.50;;;;;;4986568;28;20049;-74
2023/07/26 13:59:49;;;;;;;3.25;1.40;;;25.70;67.20;;;;;;4987281;28;20105;-73
2023/07/26 14:02:15;;;;;;;2.40;1.40;;;24.90;68.60;;;;;;4986408;28;20058;-74
2023/07/26 14:04:41;;;;;;;3.45;1.63;;;24.60;69.00;;;;;;4983117;28;20038;-72
2023/07/26 14:07:06;;;;;;;3.35;1.60;;;24.30;69.10;;;;;;4968778;28;20023;-73
2023/07/26 14:09:32;;;;;;;4.05;1.65;;;23.80;70.90;;;;;;4986450;28;20050;-74
2023/07/26 14:11:59;;;;;;;5.07;1.60;;;23.30;70.90;;;;;;4986551;28;20035;-73
2023/07/26 14:14:26;;;;;;;7.72;2.08;;;22.90;73.30;;;;;;4971881;28;20095;-72
2023/07/26 14:16:51;;;;;;;3.08;1.33;;;23.10;70.70;;;;;;4967002;29;20035;-74
2023/07/26 14:19:17;;;;;;;4.47;1.67;;;23.20;70.00;;;;;;4966910;29;20066;-74
2023/07/26 14:21:43;;;;;;;3.33;1.35;;;23.40;70.00;;;;;;4971353;28;20034;-72
2023/07/26 14:24:09;;;;;;;2.95;1.52;;;23.30;69.30;;;;;;4986434;28;20034;-74
2023/07/26 14:26:34;;;;;;;3.08;1.45;;;23.40;68.80;;;;;;4976517;28;20286;-73
2023/07/26 14:29:00;;;;;;;4.82;1.58;;;23.70;68.10;;;;;;4967270;29;20038;-73
2023/07/26 14:31:26;;;;;;;2.65;1.40;;;23.50;68.40;;;;;;4966804;29;20213;-74
2023/07/26 14:33:52;;;;;;;3.45;1.42;;;23.80;69.80;;;;;;4966452;29;20046;-72
2023/07/26 14:36:18;;;;;;;2.60;1.30;;;24.70;67.70;;;;;;4966622;29;20061;-73
2023/07/26 14:38:44;;;;;;;3.03;1.45;;;25.00;65.60;;;;;;4970519;28;20033;-73
2023/07/26 14:41:10;;;;;;;2.88;1.67;;;24.60;66.10;;;;;;4978891;28;20035;-73
2023/07/26 14:43:36;;;;;;;5.13;1.40;;;24.90;64.10;;;;;;4966465;29;20257;-73
2023/07/26 14:46:01;;;;;;;2.58;1.25;;;27.10;60.10;;;;;;4966516;29;20051;-74
2023/07/26 14:48:27;;;;;;;4.60;1.55;;;27.10;59.90;;;;;;4965367;28;20313;-74
2023/07/26 14:50:54;;;;;;;3.10;1.50;;;26.70;59.00;;;;;;4966411;29;20032;-74
2023/07/26 14:53:24;;;;;;;4.82;1.52;;;27.60;59.40;;;;;;4965942;29;20317;-73
2023/07/26 14:55:50;;;;;;;3.92;1.55;;;27.10;58.60;;;;;;4968434;28;20042;-76
2023/07/26 14:58:16;;;;;;;2.50;1.35;;;25.90;59.80;;;;;;4985818;28;20057;-75
2023/07/26 15:00:42;;;;;;;2.97;1.27;;;25.30;62.30;;;;;;4968741;28;20034;-75
2023/07/26 15:03:08;;;;;;;2.50;1.25;;;27.30;60.90;;;;;;4985664;28;20035;-76
2023/07/26 15:05:34;;;;;;;4.10;1.85;;;27.10;60.00;;;;;;4985101;28;20312;-75
2023/07/26 15:07:59;;;;;;;2.88;1.27;;;25.80;60.20;;;;;;4968071;28;20070;-75
2023/07/26 15:10:28;;;;;;;4.18;1.70;;;24.80;63.10;;;;;;4984940;28;20248;-75
2023/07/26 15:12:53;;;;;;;4.93;1.70;;;23.70;65.90;;;;;;4985904;28;20061;-73
2023/07/26 15:15:19;;;;;;;3.25;1.63;;;23.20;67.00;;;;;;4984822;28;20290;-75
2023/07/26 15:17:45;;;;;;;3.42;1.50;;;22.40;68.80;;;;;;4968012;28;20043;-76
2023/07/26 15:20:10;;;;;;;4.80;1.73;;;21.80;69.90;;;;;;4985198;28;20142;-74
2023/07/26 15:22:36;;;;;;;3.65;1.83;;;21.50;71.50;;;;;;4984896;28;20042;-74
2023/07/26 15:25:02;;;;;;;3.58;1.80;;;21.10;73.00;;;;;;4984215;28;20050;-74
2023/07/26 15:27:28;;;;;;;4.32;1.80;;;20.60;73.80;;;;;;4968249;28;20220;-77
2023/07/26 15:29:54;;;;;;;3.45;1.70;;;20.30;74.90;;;;;;4965881;29;20078;-74
2023/07/26 15:32:19;;;;;;;3.00;1.52;;;20.20;75.80;;;;;;4965389;29;20050;-73
2023/07/26 15:34:45;;;;;;;3.75;1.20;;;19.90;76.90;;;;;;4965514;29;20034;-74
2023/07/26 15:37:11;;;;;;;1.95;1.10;;;19.60;76.30;;;;;;4968410;28;20039;-74
2023/07/26 15:39:37;;;;;;;3.15;1.00;;;19.20;78.10;;;;;;4984463;28;20035;-75
2023/07/26 15:42:02;;;;;;;2.20;1.00;;;18.90;78.90;;;;;;4985128;28;20272;-75
2023/07/26 15:44:28;;;;;;;1.90;0.90;;;18.50;80.50;;;;;;4984529;28;20025;-74
2023/07/26 15:46:54;;;;;;;2.50;1.05;;;18.50;81.50;;;;;;4984891;28;20269;-75
2023/07/26 15:49:19;;;;;;;3.83;1.20;;;18.40;84.10;;;;;;4984661;28;20046;-74
2023/07/26 15:51:48;;;;;;;2.67;1.27;;;18.50;89.20;;;;;;4984794;28;20098;-72
2023/07/26 15:54:14;;;;;;;4.18;1.48;;;18.50;91.10;;;;;;4984436;28;20201;-76
2023/07/26 15:56:40;;;;;;;3.25;1.42;;;19.10;89.30;;;;;;4984253;28;20089;-74
2023/07/26 15:59:05;;;;;;;4.68;1.40;;;19.40;84.90;;;;;;4983929;28;20038;-75
2023/07/26 16:01:31;;;;;;;2.20;1.02;;;19.90;83.70;;;;;;4983644;28;20058;-74
2023/07/26 16:03:57;;;;;;;3.83;1.35;;;20.60;82.00;;;;;;4984768;28;20197;-73
2023/07/26 16:06:22;;;;;;;2.70;1.27;;;21.90;79.30;;;;;;4983912;28;20038;-72
2023/07/26 16:08:48;;;;;;;2.13;1.10;;;23.40;74.50;;;;;;4984521;28;20256;-74
2023/07/26 16:11:16;;;;;;;3.35;1.38;;;25.70;70.20;;;;;;4984616;28;20069;-74
2023/07/26 16:13:41;;;;;;;3.27;1.10;;;27.40;64.70;;;;;;4966862;28;20058;-72
2023/07/26 16:16:07;;;;;;;2.35;1.23;;;28.70;62.80;;;;;;4984666;28;20030;-73
2023/07/26 16:18:33;;;;;;;3.22;1.40;;;30.10;59.40;;;;;;4983791;28;20050;-72
2023/07/26 16:20:58;;;;;;;2.50;1.50;;;31.40;58.10;;;;;;4984004;28;20112;-72
2023/07/26 16:23:24;;;;;;;2.30;1.35;;;31.50;57.20;;;;;;4984229;28;20185;-73
2023/07/26 16:25:50;;;;;;;5.22;1.45;;;32.50;55.70;;;;;;4983928;28;20062;-72
2023/07/26 16:28:16;;;;;;;3.65;1.30;;;32.20;54.70;;;;;;4967293;28;20034;-72
2023/07/26 16:30:42;;;;;;;2.80;1.30;;;31.30;54.90;;;;;;4983723;28;20296;-76
2023/07/26 16:33:08;;;;;;;2.35;1.20;;;31.90;55.10;;;;;;4984692;28;20035;-74
2023/07/26 16:35:33;;;;;;;3.65;1.35;;;31.40;53.00;;;;;;4984188;28;20058;-76
2023/07/26 16:37:59;;;;;;;2.22;1.10;;;32.00;52.10;;;;;;4975110;28;20328;-75
2023/07/26 16:40:25;;;;;;;3.08;1.30;;;30.70;52.80;;;;;;4964416;29;20098;-73
2023/07/26 16:42:50;;;;;;;3.60;1.30;;;30.70;53.90;;;;;;4964960;29;20030;-74
2023/07/26 16:45:16;;;;;;;3.05;1.10;;;30.70;52.50;;;;;;4947352;29;20058;-77
2023/07/26 16:47:42;;;;;;;2.75;1.30;;;29.90;52.70;;;;;;4947144;29;20416;-76
2023/07/26 16:50:10;;;;;;;1.92;1.20;;;28.10;54.30;;;;;;4964428;29;20027;-74
2023/07/26 16:52:35;;;;;;;3.08;1.20;;;27.20;56.70;;;;;;4964486;29;20062;-74
2023/07/26 16:55:01;;;;;;;3.78;1.30;;;25.50;59.00;;;;;;4947428;29;20301;-75
2023/07/26 16:57:27;;;;;;;4.15;1.30;;;24.40;60.60;;;;;;4963913;29;20054;-75
2023/07/26 16:59:53;;;;;;;3.55;1.40;;;23.60;62.30;;;;;;4964742;29;20062;-75
2023/07/26 17:02:19;;;;;;;2.05;1.10;;;23.30;63.30;;;;;;4964515;29;20046;-73
2023/07/26 17:04:44;;;;;;;3.90;1.30;;;22.60;64.10;;;;;;4964913;28;20106;-75
2023/07/26 17:07:11;;;;;;;3.63;1.60;;;22.30;65.50;;;;;;4982981;28;20305;-73
2023/07/26 17:09:37;;;;;;;3.10;1.50;;;22.10;66.50;;;;;;4982845;28;20031;-72
2023/07/26 17:12:03;;;;;;;4.03;1.30;;;21.70;67.10;;;;;;4980530;28;20281;-74
2023/07/26 17:14:29;;;;;;;3.47;1.45;;;21.60;68.00;;;;;;4982604;28;20130;-72
2023/07/26 17:16:54;;;;;;;3.00;1.48;;;21.50;67.30;;;;;;4983285;28;20271;-74
2023/07/26 17:19:20;;;;;;;2.70;1.17;;;21.60;67.60;;;;;;4983061;28;20034;-73
2023/07/26 17:21:46;;;;;;;3.35;1.30;;;21.60;67.80;;;;;;4982758;28;20034;-73
2023/07/26 17:24:12;;;;;;;4.38;1.60;;;21.90;67.90;;;;;;4983191;28;20090;-73
2023/07/26 17:26:37;;;;;;;3.15;1.50;;;22.30;66.80;;;;;;4965492;28;20038;-72
2023/07/26 17:29:04;;;;;;;3.80;1.50;;;22.80;66.10;;;;;;4983181;28;20037;-74
2023/07/26 17:31:31;;;;;;;3.00;1.50;;;23.40;63.00;;;;;;4982880;28;20046;-75
2023/07/26 17:33:57;;;;;;;5.15;1.48;;;23.70;62.80;;;;;;4983600;28;20023;-74
2023/07/26 17:36:23;;;;;;;2.53;1.20;;;24.50;62.50;;;;;;4966104;28;20026;-76
2023/07/26 17:38:49;;;;;;;7.13;1.92;;;25.30;59.90;;;;;;4966845;28;20102;-73
2023/07/26 17:41:16;;;;;;;6.63;1.40;;;25.30;59.60;;;;;;4963900;29;20027;-73
2023/07/26 17:43:44;;;;;;;6.25;1.52;;;25.40;59.20;;;;;;4963782;29;20078;-72
2023/07/26 17:46:10;;;;;;;3.67;1.33;;;24.80;60.50;;;;;;4964368;29;20139;-74
2023/07/26 17:48:37;;;;;;;5.53;1.50;;;24.20;62.70;;;;;;4963974;29;20220;-73
2023/07/26 17:51:04;;;;;;;2.73;1.10;;;24.20;61.60;;;;;;4963813;29;20086;-73
2023/07/26 17:53:33;;;;;;;3.22;1.20;;;24.30;61.20;;;;;;4963570;29;20190;-72
2023/07/26 17:56:00;;;;;;;4.18;1.20;;;24.60;60.60;;;;;;4964146;29;20046;-77
2023/07/26 17:58:26;;;;;;;5.03;1.80;;;23.90;62.50;;;;;;4964159;29;20102;-72
2023/07/26 18:00:52;;;;;;;7.72;2.00;;;23.40;63.40;;;;;;4946643;29;20074;-72
2023/07/26 18:03:19;;;;;;;6.88;1.85;;;23.40;64.50;;;;;;4964147;29;20031;-73
2023/07/26 18:05:45;;;;;;;2.95;1.30;;;24.10;62.90;;;;;;4969721;28;20058;-72
2023/07/26 18:08:11;;;;;;;5.80;2.00;;;25.00;60.90;;;;;;4983496;28;20169;-77
2023/07/26 18:10:37;;;;;;;4.65;1.23;;;24.80;61.60;;;;;;4965674;28;20050;-74
2023/07/26 18:13:04;;;;;;;3.45;1.30;;;24.60;60.70;;;;;;4983570;28;20049;-74
2023/07/26 18:15:30;;;;;;;4.85;1.58;;;23.90;61.70;;;;;;4982410;28;20086;-72
2023/07/26 18:17:56;;;;;;;2.75;1.38;;;22.90;64.80;;;;;;4983161;28;20236;-74
2023/07/26 18:20:22;;;;;;;4.68;1.35;;;22.30;65.40;;;;;;4983099;28;20035;-73
2023/07/26 18:22:51;;;;;;;3.92;1.40;;;21.60;67.00;;;;;;4983206;28;20039;-73
2023/07/26 18:25:17;;;;;;;3.78;1.73;;;21.40;68.80;;;;;;4987023;28;20069;-74
2023/07/26 18:27:42;;;;;;;5.53;1.63;;;21.20;69.30;;;;;;4967639;28;20415;-73
2023/07/26 18:30:09;;;;;;;5.70;2.05;;;20.90;69.40;;;;;;4966859;29;20371;-76
2023/07/26 18:32:34;;;;;;;3.28;1.83;;;20.60;70.40;;;;;;4966839;28;20074;-73
2023/07/26 18:35:00;;;;;;;3.80;1.65;;;20.70;71.60;;;;;;4984138;28;20027;-73
2023/07/26 18:37:26;;;;;;;6.57;1.70;;;20.50;71.00;;;;;;4971281;28;20039;-73
2023/07/26 18:39:52;;;;;;;3.80;1.90;;;20.30;71.60;;;;;;4983842;28;20104;-72
2023/07/26 18:42:18;;;;;;;2.47;1.48;;;20.20;72.30;;;;;;4966534;28;20301;-73
2023/07/26 18:44:44;;;;;;;5.35;1.80;;;19.90;72.70;;;;;;4966793;29;20062;-74
2023/07/26 18:47:10;;;;;;;5.10;2.25;;;19.90;73.40;;;;;;4950039;29;20039;-74
2023/07/26 18:49:38;;;;;;;4.03;1.73;;;19.80;73.90;;;;;;4967072;29;20037;-74
2023/07/26 18:52:04;;;;;;;4.10;2.25;;;19.70;76.00;;;;;;4979894;28;20328;-72
2023/07/26 18:54:31;;;;;;;3.40;1.67;;;19.60;74.90;;;;;;4986185;28;20098;-73
2023/07/26 18:56:56;;;;;;;3.58;1.80;;;19.50;74.90;;;;;;4986509;28;20015;-74
2023/07/26 18:59:22;;;;;;;3.72;1.83;;;19.40;76.80;;;;;;4986185;28;20301;-74
2023/07/26 19:01:48;;;;;;;4.45;2.03;;;19.40;76.40;;;;;;4968196;28;20344;-72
2023/07/26 19:04:14;;;;;;;3.28;1.67;;;19.30;77.70;;;;;;4985856;28;20391;-73
2023/07/26 19:06:40;;;;;;;5.03;2.20;;;19.20;76.20;;;;;;4972136;28;20035;-72
2023/07/26 19:09:06;;;;;;;4.90;1.90;;;19.00;76.60;;;;;;4978654;28;20065;-74
2023/07/26 19:11:32;;;;;;;3.97;2.03;;;18.90;77.00;;;;;;4985558;28;20034;-74
2023/07/26 19:13:58;;;;;;;3.53;2.05;;;18.70;77.80;;;;;;4985727;28;20093;-73
2023/07/26 19:16:24;;;;;;;4.00;1.85;;;18.60;77.90;;;;;;4985852;28;20022;-74
2023/07/26 19:18:57;;;;;;;3.83;1.75;;;18.50;79.00;;;;;;4985970;28;20048;-72